Time;durP1;ratioP1;P1;durP2;ratioP2;P2;SDS_P1;SDS_P2;PMS_P1;PMS_P2;Temp;Humidity;BMP_temperature;BMP_pressure;BME280_temperature;BME280_humidity;BME280_pressure;Samples;Min_cycle;Max_cycle;Signal;HPM_P1;HPM_P2
2022/02/15 00:01:40;;;;;;;;;;;;;;;;;;5084474;28;19915;-70
2022/02/15 00:04:06;;;;;;;;;;;;;;;;;;5082481;28;19917;-70
2022/02/15 00:06:32;;;;;;;;;;;;;;;;;;5082815;28;20260;-70
2022/02/15 00:08:58;;;;;;;;;;;;;;;;;;5090111;28;19959;-70
2022/02/15 00:11:24;;;;;;;;;;;;;;;;;;5084184;28;19926;-70
2022/02/15 00:13:50;;;;;;;;;;;;;;;;;;5082616;28;20367;-70
2022/02/15 00:16:16;;;;;;;;;;;;;;;;;;5082716;28;19914;-70
2022/02/15 00:18:42;;;;;;;;;;;;;;;;;;5082653;28;19954;-70
2022/02/15 00:21:08;;;;;;;;;;;;;;;;;;5087478;28;19924;-70
2022/02/15 00:23:34;;;;;;;;;;;;;;;;;;5086138;28;20034;-70
2022/02/15 00:26:00;;;;;;;;;;;;;;;;;;5081971;28;19995;-71
2022/02/15 00:28:26;;;;;;;;;;;;;;;;;;5082642;28;19965;-70
2022/02/15 00:30:52;;;;;;;;;;;;;;;;;;5082910;28;20267;-73
2022/02/15 00:33:18;;;;;;;;;;;;;;;;;;5084837;28;19912;-71
2022/02/15 00:35:43;;;;;;;;;;;;;;;;;;5088401;28;19915;-71
2022/02/15 00:38:10;;;;;;;;;;;;;;;;;;5082558;28;19908;-70
2022/02/15 00:40:37;;;;;;;;;;;;;;;;;;5082343;28;19912;-71
2022/02/15 00:43:03;;;;;;;;;;;;;;;;;;5084001;28;19904;-71
2022/02/15 00:45:29;;;;;;;;;;;;;;;;;;5082516;28;19908;-71
2022/02/15 00:47:55;;;;;;;;;;;;;;;;;;5090073;28;20018;-71
2022/02/15 00:50:21;;;;;;;;;;;;;;;;;;5086313;28;20363;-71
2022/02/15 00:52:47;;;;;;;;;;;;;;;;;;5086304;28;19912;-71
2022/02/15 00:55:15;;;;;;;;;;;;;;;;;;5085570;28;19995;-71
2022/02/15 00:57:41;;;;;;;;;;;;;;;;;;5086038;28;19905;-71
2022/02/15 01:00:08;;;;;;;;;;;;;;;;;;5091200;28;19915;-71
2022/02/15 01:02:33;;;;;;;;;;;;;;;;;;5089444;28;19908;-71
2022/02/15 01:04:59;;;;;;;;;;;;;;;;;;5085520;28;20239;-71
2022/02/15 01:07:25;;;;;;;;;;;;;;;;;;5085971;28;19912;-71
2022/02/15 01:09:51;;;;;;;;;;;;;;;;;;5085759;28;19912;-71
2022/02/15 01:12:17;;;;;;;;;;;;;;;;;;5088564;28;19915;-71
2022/02/15 01:14:43;;;;;;;;;;;;;;;;;;5091662;28;19904;-71
2022/02/15 01:17:09;;;;;;;;;;;;;;;;;;5085693;28;19927;-71
2022/02/15 01:19:35;;;;;;;;;;;;;;;;;;5085586;28;19912;-71
2022/02/15 01:22:00;;;;;;;;;;;;;;;;;;5084810;28;19923;-71
2022/02/15 01:24:26;;;;;;;;;;;;;;;;;;5085709;28;19912;-71
2022/02/15 01:26:52;;;;;;;;;;;;;;;;;;5093704;28;19911;-71
2022/02/15 01:29:18;;;;;;;;;;;;;;;;;;5084863;28;19916;-71
2022/02/15 01:31:44;;;;;;;;;;;;;;;;;;5085674;28;19907;-71
2022/02/15 01:34:11;;;;;;;;;;;;;;;;;;5085235;28;19907;-71
2022/02/15 01:36:37;;;;;;;;;;;;;;;;;;5085050;28;20045;-70
2022/02/15 01:39:03;;;;;;;;;;;;;;;;;;5091073;28;19995;-70
2022/02/15 01:41:29;;;;;;;;;;;;;;;;;;5087511;28;19904;-70
2022/02/15 01:43:55;;;;;;;;;;;;;;;;;;5085499;28;19912;-70
2022/02/15 01:46:21;;;;;;;;;;;;;;;;;;5085167;28;20322;-70
2022/02/15 01:48:47;;;;;;;;;;;;;;;;;;5084834;28;19923;-70
2022/02/15 01:51:13;;;;;;;;;;;;;;;;;;5088507;28;19939;-70
2022/02/15 01:53:39;;;;;;;;;;;;;;;;;;5089671;28;20410;-71
2022/02/15 01:56:05;;;;;;;;;;;;;;;;;;5085136;28;19915;-70
2022/02/15 01:58:31;;;;;;;;;;;;;;;;;;5084280;28;19908;-70
2022/02/15 02:00:57;;;;;;;;;;;;;;;;;;5084384;28;19904;-70
2022/02/15 02:03:23;;;;;;;;;;;;;;;;;;5085547;28;19908;-70
2022/02/15 02:05:49;;;;;;;;;;;;;;;;;;5091971;28;19904;-70
2022/02/15 02:08:15;;;;;;;;;;;;;;;;;;5084743;28;19911;-70
2022/02/15 02:10:41;;;;;;;;;;;;;;;;;;5084530;28;19908;-70
2022/02/15 02:13:07;;;;;;;;;;;;;;;;;;5084131;28;20303;-70
2022/02/15 02:15:33;;;;;;;;;;;;;;;;;;5084783;28;19987;-70
2022/02/15 02:17:59;;;;;;;;;;;;;;;;;;5091382;28;19911;-70
2022/02/15 02:20:25;;;;;;;;;;;;;;;;;;5085723;28;19908;-69
2022/02/15 02:22:50;;;;;;;;;;;;;;;;;;5084580;28;19954;-70
2022/02/15 02:25:17;;;;;;;;;;;;;;;;;;5084128;28;19911;-70
2022/02/15 02:27:43;;;;;;;;;;;;;;;;;;5084529;28;19916;-70
2022/02/15 02:30:09;;;;;;;;;;;;;;;;;;5089336;28;19919;-70
2022/02/15 02:32:35;;;;;;;;;;;;;;;;;;5087074;28;19904;-70
2022/02/15 02:35:01;;;;;;;;;;;;;;;;;;5084364;28;19915;-70
2022/02/15 02:37:27;;;;;;;;;;;;;;;;;;5083976;28;20409;-70
2022/02/15 02:39:53;;;;;;;;;;;;;;;;;;5084234;28;19991;-70
2022/02/15 02:42:19;;;;;;;;;;;;;;;;;;5085934;28;19917;-70
2022/02/15 02:44:45;;;;;;;;;;;;;;;;;;5090003;28;19919;-70
2022/02/15 02:47:10;;;;;;;;;;;;;;;;;;5083838;28;19961;-69
2022/02/15 02:49:36;;;;;;;;;;;;;;;;;;5083975;28;19963;-70
2022/02/15 02:52:02;;;;;;;;;;;;;;;;;;5083872;28;19935;-70
2022/02/15 02:54:28;;;;;;;;;;;;;;;;;;5083625;28;19919;-70
2022/02/15 02:56:54;;;;;;;;;;;;;;;;;;5083394;28;19912;-70
2022/02/15 02:59:20;;;;;;;;;;;;;;;;;;5070705;28;19942;-70
2022/02/15 03:01:46;;;;;;;;;;;;;;;;;;5070799;28;19908;-71
2022/02/15 03:04:12;;;;;;;;;;;;;;;;;;5073663;28;19908;-70
2022/02/15 03:06:38;;;;;;;;;;;;;;;;;;5083684;28;19915;-70
2022/02/15 03:09:04;;;;;;;;;;;;;;;;;;5088780;28;19957;-70
2022/02/15 03:11:30;;;;;;;;;;;;;;;;;;5086037;28;19908;-70
2022/02/15 03:13:55;;;;;;;;;;;;;;;;;;5082978;28;19915;-70
2022/02/15 03:16:24;;;;;;;;;;;;;;;;;;5083491;28;19955;-70
2022/02/15 03:18:50;;;;;;;;;;;;;;;;;;5083564;28;19908;-70
2022/02/15 03:21:16;;;;;;;;;;;;;;;;;;5074196;28;19924;-70
2022/02/15 03:23:42;;;;;;;;;;;;;;;;;;5074740;28;19905;-70
2022/02/15 03:26:08;;;;;;;;;;;;;;;;;;5072702;28;19912;-70
2022/02/15 03:28:33;;;;;;;;;;;;;;;;;;5071739;28;19973;-70
2022/02/15 03:31:00;;;;;;;;;;;;;;;;;;5070292;28;19908;-71
2022/02/15 03:33:25;;;;;;;;;;;;;;;;;;5070787;28;19908;-70
2022/02/15 03:35:51;;;;;;;;;;;;;;;;;;5074545;28;19905;-70
2022/02/15 03:38:17;;;;;;;;;;;;;;;;;;5072656;28;19916;-70
2022/02/15 03:43:28;;;;;;;;;;;;;;;;;;5070700;28;19933;-71
2022/02/15 03:45:53;;;;;;;;;;;;;;;;;;5069353;28;19908;-71
2022/02/15 03:48:19;;;;;;;;;;;;;;;;;;5070849;28;20335;-71
2022/02/15 03:50:45;;;;;;;;;;;;;;;;;;5074449;28;19912;-71
2022/02/15 03:53:12;;;;;;;;;;;;;;;;;;5072424;28;19912;-70
2022/02/15 03:55:38;;;;;;;;;;;;;;;;;;5071948;28;19908;-70
2022/02/15 03:58:04;;;;;;;;;;;;;;;;;;5070573;28;19954;-70
2022/02/15 04:00:30;;;;;;;;;;;;;;;;;;5070750;28;19959;-71
2022/02/15 04:02:55;;;;;;;;;;;;;;;;;;5073766;28;20261;-70
2022/02/15 04:05:22;;;;;;;;;;;;;;;;;;5072507;28;19939;-70
2022/02/15 04:07:48;;;;;;;;;;;;;;;;;;5072107;28;20328;-70
2022/02/15 04:10:14;;;;;;;;;;;;;;;;;;5071892;28;19963;-70
2022/02/15 04:12:40;;;;;;;;;;;;;;;;;;5069961;28;19915;-71
2022/02/15 04:15:06;;;;;;;;;;;;;;;;;;5070956;28;19905;-70
2022/02/15 04:17:32;;;;;;;;;;;;;;;;;;5073858;28;20434;-69
2022/02/15 04:19:58;;;;;;;;;;;;;;;;;;5072426;28;19917;-69
2022/02/15 04:22:24;;;;;;;;;;;;;;;;;;5072392;28;19952;-69
2022/02/15 04:24:49;;;;;;;;;;;;;;;;;;5073721;28;20333;-69
2022/02/15 04:27:15;;;;;;;;;;;;;;;;;;5089833;28;19912;-70
2022/02/15 04:29:41;;;;;;;;;;;;;;;;;;5091617;28;19913;-70
2022/02/15 04:32:07;;;;;;;;;;;;;;;;;;5075660;28;19915;-70
2022/02/15 04:34:33;;;;;;;;;;;;;;;;;;5074271;28;19912;-70
2022/02/15 04:36:59;;;;;;;;;;;;;;;;;;5073668;28;19916;-70
2022/02/15 04:39:25;;;;;;;;;;;;;;;;;;5072381;28;19908;-70
2022/02/15 04:41:51;;;;;;;;;;;;;;;;;;5077917;28;20287;-70
2022/02/15 04:44:17;;;;;;;;;;;;;;;;;;5073488;28;19957;-69
2022/02/15 04:46:43;;;;;;;;;;;;;;;;;;5080662;28;19908;-72
2022/02/15 04:49:08;;;;;;;;;;;;;;;;;;5076607;28;19915;-72
2022/02/15 04:51:34;;;;;;;;;;;;;;;;;;5073412;28;19912;-70
2022/02/15 04:54:00;;;;;;;;;;;;;;;;;;5074009;28;19954;-70
2022/02/15 04:56:26;;;;;;;;;;;;;;;;;;5088329;28;19959;-70
2022/02/15 04:58:52;;;;;;;;;;;;;;;;;;5072946;28;19908;-70
2022/02/15 05:01:18;;;;;;;;;;;;;;;;;;5076729;28;19962;-70
2022/02/15 05:03:44;;;;;;;;;;;;;;;;;;5076573;28;20003;-71
2022/02/15 05:06:10;;;;;;;;;;;;;;;;;;5078030;28;19995;-70
2022/02/15 05:08:36;;;;;;;;;;;;;;;;;;5076010;28;19919;-70
2022/02/15 05:11:02;;;;;;;;;;;;;;;;;;5074410;28;20454;-70
2022/02/15 05:13:28;;;;;;;;;;;;;;;;;;5074070;28;19951;-70
2022/02/15 05:15:54;;;;;;;;;;;;;;;;;;5072974;28;20240;-70
2022/02/15 05:18:19;;;;;;;;;;;;;;;;;;5072127;28;19958;-70
2022/02/15 05:20:45;;;;;;;;;;;;;;;;;;5077063;28;19908;-70
2022/02/15 05:23:11;;;;;;;;;;;;;;;;;;5072132;28;20066;-70
2022/02/15 05:25:37;;;;;;;;;;;;;;;;;;5074124;28;19912;-70
2022/02/15 05:28:03;;;;;;;;;;;;;;;;;;5072225;28;19955;-70
2022/02/15 05:30:29;;;;;;;;;;;;;;;;;;5071667;28;19920;-70
2022/02/15 05:32:55;;;;;;;;;;;;;;;;;;5080812;28;19908;-70
2022/02/15 05:35:21;;;;;;;;;;;;;;;;;;5077191;28;20517;-70
2022/02/15 05:37:47;;;;;;;;;;;;;;;;;;5075053;28;19913;-70
2022/02/15 05:40:13;;;;;;;;;;;;;;;;;;5073193;28;20477;-70
2022/02/15 05:42:38;;;;;;;;;;;;;;;;;;5071386;28;19940;-70
2022/02/15 05:45:04;;;;;;;;;;;;;;;;;;5073784;28;19908;-69
2022/02/15 05:47:30;;;;;;;;;;;;;;;;;;5075050;28;19915;-70
2022/02/15 05:52:41;;;;;;;;;;;;;;;;;;5071097;28;20053;-70
2022/02/15 05:55:07;;;;;;;;;;;;;;;;;;5071320;28;19999;-70
2022/02/15 05:57:33;;;;;;;;;;;;;;;;;;5073551;28;20480;-70
2022/02/15 05:59:59;;;;;;;;;;;;;;;;;;5071867;28;20035;-70
2022/02/15 06:02:25;;;;;;;;;;;;;;;;;;5073432;28;19905;-68
2022/02/15 06:04:52;;;;;;;;;;;;;;;;;;5072303;28;19916;-68
2022/02/15 06:07:17;;;;;;;;;;;;;;;;;;5072432;28;19916;-68
2022/02/15 06:09:43;;;;;;;;;;;;;;;;;;5070488;28;19916;-69
2022/02/15 06:12:09;;;;;;;;;;;;;;;;;;5072108;28;19904;-69
2022/02/15 06:14:35;;;;;;;;;;;;;;;;;;5073398;28;19926;-70
2022/02/15 06:17:01;;;;;;;;;;;;;;;;;;5072222;28;19908;-69
2022/02/15 06:19:27;;;;;;;;;;;;;;;;;;5071904;28;19911;-70
2022/02/15 06:21:53;;;;;;;;;;;;;;;;;;5070446;28;19916;-70
2022/02/15 06:24:20;;;;;;;;;;;;;;;;;;5071763;28;19923;-69
2022/02/15 06:26:46;;;;;;;;;;;;;;;;;;5087031;28;19904;-70
2022/02/15 06:29:12;;;;;;;;;;;;;;;;;;5084063;28;19916;-70
2022/02/15 06:31:38;;;;;;;;;;;;;;;;;;5079533;28;19907;-70
2022/02/15 06:34:05;;;;;;;;;;;;;;;;;;5084250;28;19915;-70
2022/02/15 06:36:31;;;;;;;;;;;;;;;;;;5076906;28;19909;-70
2022/02/15 06:38:56;;;;;;;;;;;;;;;;;;5074770;28;20360;-70
2022/02/15 06:41:22;;;;;;;;;;;;;;;;;;5085391;28;19916;-70
2022/02/15 06:43:48;;;;;;;;;;;;;;;;;;5084166;28;19911;-69
2022/02/15 06:46:14;;;;;;;;;;;;;;;;;;5083949;28;19908;-68
2022/02/15 06:48:40;;;;;;;;;;;;;;;;;;5082136;28;19916;-68
2022/02/15 06:51:06;;;;;;;;;;;;;;;;;;5072578;28;19904;-68
2022/02/15 06:53:33;;;;;;;;;;;;;;;;;;5084663;28;19904;-68
2022/02/15 06:55:58;;;;;;;;;;;;;;;;;;5083676;28;19915;-69
2022/02/15 06:58:24;;;;;;;;;;;;;;;;;;5083859;28;19908;-69
2022/02/15 07:00:50;;;;;;;;;;;;;;;;;;5083447;28;19968;-69
2022/02/15 07:03:16;;;;;;;;;;;;;;;;;;5086484;28;20004;-68
2022/02/15 07:05:42;;;;;;;;;;;;;;;;;;5089804;28;20318;-70
2022/02/15 07:08:08;;;;;;;;;;;;;;;;;;5081481;28;19961;-69
2022/02/15 07:10:35;;;;;;;;;;;;;;;;;;5083059;28;19916;-69
2022/02/15 07:13:01;;;;;;;;;;;;;;;;;;5083396;28;20018;-69
2022/02/15 07:15:27;;;;;;;;;;;;;;;;;;5083257;28;20399;-69
2022/02/15 07:17:53;;;;;;;;;;;;;;;;;;5091572;28;19949;-69
2022/02/15 07:20:19;;;;;;;;;;;;;;;;;;5083388;28;19908;-69
2022/02/15 07:22:45;;;;;;;;;;;;;;;;;;5083015;28;20428;-70
2022/02/15 07:25:11;;;;;;;;;;;;;;;;;;5082578;28;19908;-69
2022/02/15 07:27:37;;;;;;;;;;;;;;;;;;5082612;28;19991;-70
2022/02/15 07:30:03;;;;;;;;;;;;;;;;;;5089262;28;19912;-69
2022/02/15 07:32:29;;;;;;;;;;;;;;;;;;5086853;28;19911;-69
2022/02/15 07:34:56;;;;;;;;;;;;;;;;;;5084391;28;20057;-69
2022/02/15 07:37:22;;;;;;;;;;;;;;;;;;5082964;28;19979;-69
2022/02/15 07:39:48;;;;;;;;;;;;;;;;;;5082872;28;19911;-69
2022/02/15 07:42:14;;;;;;;;;;;;;;;;;;5086715;28;19983;-69
2022/02/15 07:44:39;;;;;;;;;;;;;;;;;;5087410;28;19904;-69
2022/02/15 07:47:05;;;;;;;;;;;;;;;;;;5082830;28;19961;-69
2022/02/15 07:49:31;;;;;;;;;;;;;;;;;;5082845;28;19923;-69
2022/02/15 07:51:57;;;;;;;;;;;;;;;;;;5082802;28;19919;-70
2022/02/15 07:54:23;;;;;;;;;;;;;;;;;;5083537;28;19916;-70
2022/02/15 07:56:49;;;;;;;;;;;;;;;;;;5090018;28;19904;-69
2022/02/15 07:59:15;;;;;;;;;;;;;;;;;;5084234;28;20369;-70
2022/02/15 08:01:41;;;;;;;;;;;;;;;;;;5087203;28;19904;-70
2022/02/15 08:04:08;;;;;;;;;;;;;;;;;;5086672;28;20205;-70
2022/02/15 08:06:36;;;;;;;;;;;;;;;;;;5086333;28;19967;-69
2022/02/15 08:09:02;;;;;;;;;;;;;;;;;;5093012;28;19971;-70
2022/02/15 08:11:30;;;;;;;;;;;;;;;;;;5088792;28;19966;-70
2022/02/15 08:13:59;;;;;;;;;;;;;;;;;;5086692;28;19904;-69
2022/02/15 08:16:25;;;;;;;;;;;;;;;;;;5086472;28;19908;-69
2022/02/15 08:18:51;;;;;;;;;;;;;;;;;;5086407;28;20381;-69
2022/02/15 08:21:17;;;;;;;;;;;;;;;;;;5089550;28;19979;-69
2022/02/15 08:23:43;;;;;;;;;;;;;;;;;;5092104;28;20289;-69
2022/02/15 08:26:09;;;;;;;;;;;;;;;;;;5086374;28;19915;-69
2022/02/15 08:28:40;;;;;;;;;;;;;;;;;;5085964;28;19919;-69
2022/02/15 08:31:06;;;;;;;;;;;;;;;;;;5086852;28;19916;-69
2022/02/15 08:33:32;;;;;;;;;;;;;;;;;;5087446;28;19916;-68
2022/02/15 08:35:57;;;;;;;;;;;;;;;;;;5093448;28;19919;-68
2022/02/15 08:38:23;;;;;;;;;;;;;;;;;;5087307;28;19912;-69
2022/02/15 08:40:49;;;;;;;;;;;;;;;;;;5086065;28;19922;-71
2022/02/15 08:43:16;;;;;;;;;;;;;;;;;;5085883;28;19940;-70
2022/02/15 08:45:42;;;;;;;;;;;;;;;;;;5086322;28;20000;-70
2022/02/15 08:48:08;;;;;;;;;;;;;;;;;;5091064;28;20305;-71
2022/02/15 08:50:34;;;;;;;;;;;;;;;;;;5088945;28;20007;-70
2022/02/15 08:53:00;;;;;;;;;;;;;;;;;;5086225;28;20003;-70
2022/02/15 08:55:26;;;;;;;;;;;;;;;;;;5085658;28;19908;-70
2022/02/15 08:57:52;;;;;;;;;;;;;;;;;;5085816;28;19907;-71
2022/02/15 09:00:18;;;;;;;;;;;;;;;;;;5087930;28;20350;-69
2022/02/15 09:02:44;;;;;;;;;;;;;;;;;;5071776;28;19970;-70
2022/02/15 09:05:10;;;;;;;;;;;;;;;;;;5059793;28;19909;-61
2022/02/15 09:07:36;;;;;;;;;;;;;;;;;;5057252;28;19919;-67
2022/02/15 09:10:02;;;;;;;;;;;;;;;;;;5070739;28;19917;-69
2022/02/15 09:12:28;;;;;;;;;;;;;;;;;;5053634;28;19908;-64
2022/02/15 09:14:54;;;;;;;;;;;;;;;;;;5056784;28;19904;-67
2022/02/15 09:17:20;;;;;;;;;;;;;;;;;;5056958;28;19958;-64
2022/02/15 09:19:46;;;;;;;;;;;;;;;;;;5057294;28;20301;-67
2022/02/15 09:22:12;;;;;;;;;;;;;;;;;;5057375;28;19917;-66
2022/02/15 09:24:37;;;;;;;;;;;;;;;;;;5054561;28;19943;-65
2022/02/15 09:27:03;;;;;;;;;;;;;;;;;;5055380;28;19912;-65
2022/02/15 09:29:29;;;;;;;;;;;;;;;;;;5066294;28;19966;-66
2022/02/15 09:31:55;;;;;;;;;;;;;;;;;;5060590;28;19916;-64
2022/02/15 09:34:23;;;;;;;;;;;;;;;;;;5056698;28;19909;-65
2022/02/15 09:36:49;;;;;;;;;;;;;;;;;;5055423;28;19916;-66
2022/02/15 09:39:14;;;;;;;;;;;;;;;;;;5054090;28;20324;-69
2022/02/15 09:41:40;;;;;;;;;;;;;;;;;;5071084;28;19908;-69
2022/02/15 09:44:06;;;;;;;;;;;;;;;;;;5069531;28;19904;-70
2022/02/15 09:46:32;;;;;;;;;;;;;;;;;;5068789;28;19928;-70
2022/02/15 09:48:58;;;;;;;;;;;;;;;;;;5068611;28;19912;-69
2022/02/15 09:51:25;;;;;;;;;;;;;;;;;;5069330;28;20315;-69
2022/02/15 09:53:51;;;;;;;;;;;;;;;;;;5070931;28;19912;-69
2022/02/15 09:56:16;;;;;;;;;;;;;;;;;;5068272;28;20046;-69
2022/02/15 09:58:42;;;;;;;;;;;;;;;;;;5068987;28;20279;-69
2022/02/15 10:01:08;;;;;;;;;;;;;;;;;;5068632;28;19908;-69
2022/02/15 10:03:34;;;;;;;;;;;;;;;;;;5066329;28;20467;-63
2022/02/15 10:06:02;;;;;;;;;;;;;;;;;;5068478;28;19904;-63
2022/02/15 10:08:28;;;;;;;;;;;;;;;;;;5055658;28;19912;-62
2022/02/15 10:10:54;;;;;;;;;;;;;;;;;;5055701;28;20762;-63
2022/02/15 10:13:20;;;;;;;;;;;;;;;;;;5055115;28;19917;-62
2022/02/15 10:15:45;;;;;;;;;;;;;;;;;;5059291;28;19919;-62
2022/02/15 10:18:11;;;;;;;;;;;;;;;;;;5051715;28;19912;-64
2022/02/15 10:20:37;;;;;;;;;;;;;;;;;;5054265;28;19916;-65
2022/02/15 10:23:03;;;;;;;;;;;;;;;;;;5054525;28;19921;-64
2022/02/15 10:25:29;;;;;;;;;;;;;;;;;;5055040;28;19915;-64
2022/02/15 10:27:55;;;;;;;;;;;;;;;;;;5055132;28;20386;-64
2022/02/15 10:30:21;;;;;;;;;;;;;;;;;;5050023;28;19955;-64
2022/02/15 10:32:47;;;;;;;;;;;;;;;;;;5053770;28;20383;-64
2022/02/15 10:35:13;;;;;;;;;;;;;;;;;;5070278;28;19912;-64
2022/02/15 10:37:39;;;;;;;;;;;;;;;;;;5069216;28;19992;-63
2022/02/15 10:40:05;;;;;;;;;;;;;;;;;;5054634;28;19915;-62
2022/02/15 10:42:30;;;;;;;;;;;;;;;;;;5050223;28;19962;-62
2022/02/15 10:45:00;;;;;;;;;;;;;;;;;;5052239;28;19904;-63
2022/02/15 10:47:25;;;;;;;;;;;;;;;;;;5054372;28;19908;-62
2022/02/15 10:49:51;;;;;;;;;;;;;;;;;;5054119;28;20292;-62
2022/02/15 10:52:17;;;;;;;;;;;;;;;;;;5053853;28;19912;-63
2022/02/15 10:54:43;;;;;;;;;;;;;;;;;;5051557;28;19909;-66
2022/02/15 10:57:09;;;;;;;;;;;;;;;;;;5051366;28;19927;-67
2022/02/15 10:59:35;;;;;;;;;;;;;;;;;;5052565;28;20383;-68
2022/02/15 11:02:01;;;;;;;;;;;;;;;;;;5065511;28;20045;-69
2022/02/15 11:04:27;;;;;;;;;;;;;;;;;;5065962;28;19912;-67
2022/02/15 11:06:53;;;;;;;;;;;;;;;;;;5064948;28;20465;-68
2022/02/15 11:09:19;;;;;;;;;;;;;;;;;;5065872;28;19923;-66
2022/02/15 11:11:45;;;;;;;;;;;;;;;;;;5066110;28;20371;-64
2022/02/15 11:14:10;;;;;;;;;;;;;;;;;;5065574;28;19943;-67
2022/02/15 11:16:36;;;;;;;;;;;;;;;;;;5065708;28;19915;-67
2022/02/15 11:19:02;;;;;;;;;;;;;;;;;;5064311;28;19916;-67
2022/02/15 11:21:28;;;;;;;;;;;;;;;;;;5065666;28;20074;-67
2022/02/15 11:23:54;;;;;;;;;;;;;;;;;;5068051;28;19905;-66
2022/02/15 11:26:22;;;;;;;;;;;;;;;;;;5064013;28;19915;-66
2022/02/15 11:28:48;;;;;;;;;;;;;;;;;;5065128;28;20295;-67
2022/02/15 11:31:13;;;;;;;;;;;;;;;;;;5065063;28;19916;-67
2022/02/15 11:33:39;;;;;;;;;;;;;;;;;;5059842;28;20030;-67
2022/02/15 11:36:05;;;;;;;;;;;;;;;;;;5062446;28;19919;-66
2022/02/15 11:38:31;;;;;;;;;;;;;;;;;;5063752;28;19947;-67
2022/02/15 11:40:57;;;;;;;;;;;;;;;;;;5059890;28;19919;-67
2022/02/15 11:43:23;;;;;;;;;;;;;;;;;;5063462;28;19951;-67
2022/02/15 11:45:49;;;;;;;;;;;;;;;;;;5063388;28;19916;-67
2022/02/15 11:48:15;;;;;;;;;;;;;;;;;;5064882;28;19908;-67
2022/02/15 11:50:41;;;;;;;;;;;;;;;;;;5050749;28;20288;-67
2022/02/15 11:53:07;;;;;;;;;;;;;;;;;;5051971;28;19916;-67
2022/02/15 11:55:33;;;;;;;;;;;;;;;;;;5051737;28;19920;-63
2022/02/15 11:57:59;;;;;;;;;;;;;;;;;;5051226;28;20359;-64
2022/02/15 12:00:25;;;;;;;;;;;;;;;;;;5057217;28;19998;-63
2022/02/15 12:02:51;;;;;;;;;;;;;;;;;;5054631;28;20023;-63
2022/02/15 12:05:17;;;;;;;;;;;;;;;;;;5054693;28;19913;-66
2022/02/15 12:07:43;;;;;;;;;;;;;;;;;;5054918;28;19915;-64
2022/02/15 12:10:09;;;;;;;;;;;;;;;;;;5054897;28;19916;-64
2022/02/15 12:12:36;;;;;;;;;;;;;;;;;;5050385;28;20053;-62
2022/02/15 12:15:05;;;;;;;;;;;;;;;;;;5053223;28;19905;-62
2022/02/15 12:17:32;;;;;;;;;;;;;;;;;;5064280;28;19957;-63
2022/02/15 12:19:58;;;;;;;;;;;;;;;;;;5058425;28;19912;-62
2022/02/15 12:22:24;;;;;;;;;;;;;;;;;;5053278;28;19916;-64
2022/02/15 12:24:50;;;;;;;;;;;;;;;;;;5058701;28;19908;-65
2022/02/15 12:27:16;;;;;;;;;;;;;;;;;;5067230;28;19915;-65
2022/02/15 12:29:41;;;;;;;;;;;;;;;;;;5068690;28;19932;-65
2022/02/15 12:32:07;;;;;;;;;;;;;;;;;;5067380;28;20538;-66
2022/02/15 12:34:34;;;;;;;;;;;;;;;;;;5067144;28;19909;-65
2022/02/15 12:37:00;;;;;;;;;;;;;;;;;;5067729;28;19930;-66
2022/02/15 12:39:26;;;;;;;;;;;;;;;;;;5067131;28;20409;-66
2022/02/15 12:41:51;;;;;;;;;;;;;;;;;;5089771;28;20365;-66
2022/02/15 12:44:18;;;;;;;;;;;;;;;;;;5082151;28;19907;-66
2022/02/15 12:46:44;;;;;;;;;;;;;;;;;;5082892;28;20244;-68
2022/02/15 12:49:10;;;;;;;;;;;;;;;;;;5060522;28;19922;-68
2022/02/15 12:51:36;;;;;;;;;;;;;;;;;;5061261;28;19917;-69
2022/02/15 12:54:01;;;;;;;;;;;;;;;;;;5082327;28;19924;-69
2022/02/15 12:56:28;;;;;;;;;;;;;;;;;;5087343;28;19953;-68
2022/02/15 12:58:53;;;;;;;;;;;;;;;;;;5085947;28;19912;-68
2022/02/15 13:01:19;;;;;;;;;;;;;;;;;;5085848;28;19914;-68
2022/02/15 13:03:45;;;;;;;;;;;;;;;;;;5085499;28;20392;-68
2022/02/15 13:06:11;;;;;;;;;;;;;;;;;;5086916;28;19904;-69
2022/02/15 13:08:37;;;;;;;;;;;;;;;;;;5088796;28;19911;-69
2022/02/15 13:11:03;;;;;;;;;;;;;;;;;;5085478;28;19916;-69
2022/02/15 13:13:29;;;;;;;;;;;;;;;;;;5085775;28;19915;-69
2022/02/15 13:15:55;;;;;;;;;;;;;;;;;;5085376;28;19908;-69
2022/02/15 13:18:20;;;;;;;;;;;;;;;;;;5087606;28;19916;-69
2022/02/15 13:20:46;;;;;;;;;;;;;;;;;;5091496;28;19904;-68
2022/02/15 13:23:12;;;;;;;;;;;;;;;;;;5085540;28;19912;-69
2022/02/15 13:25:38;;;;;;;;;;;;;;;;;;5084822;28;20000;-68
2022/02/15 13:28:04;;;;;;;;;;;;;;;;;;5084734;28;19999;-69
2022/02/15 13:30:30;;;;;;;;;;;;;;;;;;5069453;28;19970;-69
2022/02/15 13:32:56;;;;;;;;;;;;;;;;;;5093355;28;19904;-69
2022/02/15 13:35:22;;;;;;;;;;;;;;;;;;5085042;28;20280;-69
2022/02/15 13:37:51;;;;;;;;;;;;;;;;;;5084603;28;20004;-69
2022/02/15 13:40:17;;;;;;;;;;;;;;;;;;5084834;28;20375;-69
2022/02/15 13:42:43;;;;;;;;;;;;;;;;;;5087637;28;19912;-69
2022/02/15 13:45:09;;;;;;;;;;;;;;;;;;5089630;28;20399;-69
2022/02/15 13:47:34;;;;;;;;;;;;;;;;;;5087832;28;19904;-69
2022/02/15 13:50:00;;;;;;;;;;;;;;;;;;5085082;28;20359;-69
2022/02/15 13:52:26;;;;;;;;;;;;;;;;;;5081708;28;20120;-69
2022/02/15 13:54:52;;;;;;;;;;;;;;;;;;5084348;28;19919;-69
2022/02/15 13:57:19;;;;;;;;;;;;;;;;;;5087041;28;19927;-69
2022/02/15 13:59:45;;;;;;;;;;;;;;;;;;5091412;28;20252;-69
2022/02/15 14:02:11;;;;;;;;;;;;;;;;;;5082798;28;19908;-68
2022/02/15 14:04:37;;;;;;;;;;;;;;;;;;5084436;28;19912;-69
2022/02/15 14:07:05;;;;;;;;;;;;;;;;;;5084461;28;19915;-69
2022/02/15 14:09:31;;;;;;;;;;;;;;;;;;5084933;28;19921;-69
2022/02/15 14:11:57;;;;;;;;;;;;;;;;;;5091090;28;20184;-69
2022/02/15 14:14:23;;;;;;;;;;;;;;;;;;5084563;28;19959;-69
2022/02/15 14:16:49;;;;;;;;;;;;;;;;;;5084713;28;20424;-69
2022/02/15 14:19:15;;;;;;;;;;;;;;;;;;5084516;28;19987;-69
2022/02/15 14:21:41;;;;;;;;;;;;;;;;;;5083614;28;19978;-68
2022/02/15 14:24:07;;;;;;;;;;;;;;;;;;5089117;28;19951;-69
2022/02/15 14:26:33;;;;;;;;;;;;;;;;;;5087312;28;19910;-69
2022/02/15 14:28:59;;;;;;;;;;;;;;;;;;5084338;28;20546;-68
2022/02/15 14:31:25;;;;;;;;;;;;;;;;;;5083721;28;19908;-68
2022/02/15 14:33:50;;;;;;;;;;;;;;;;;;5083995;28;19908;-69
2022/02/15 14:36:16;;;;;;;;;;;;;;;;;;5087007;28;19965;-69
2022/02/15 14:38:42;;;;;;;;;;;;;;;;;;5088885;28;20005;-68
2022/02/15 14:41:08;;;;;;;;;;;;;;;;;;5085780;28;20359;-68
2022/02/15 14:43:34;;;;;;;;;;;;;;;;;;5086136;28;19915;-68
2022/02/15 14:46:00;;;;;;;;;;;;;;;;;;5084108;28;19943;-69
2022/02/15 14:48:26;;;;;;;;;;;;;;;;;;5084253;28;19996;-68
2022/02/15 14:50:53;;;;;;;;;;;;;;;;;;5091115;28;19934;-69
2022/02/15 14:53:20;;;;;;;;;;;;;;;;;;5083486;28;19998;-68
2022/02/15 14:55:46;;;;;;;;;;;;;;;;;;5083570;28;19908;-69
2022/02/15 14:58:11;;;;;;;;;;;;;;;;;;5083446;28;19914;-69
2022/02/15 15:00:37;;;;;;;;;;;;;;;;;;5083582;28;19913;-68
2022/02/15 15:03:03;;;;;;;;;;;;;;;;;;5089378;28;20224;-68
2022/02/15 15:05:29;;;;;;;;;;;;;;;;;;5085223;28;19904;-68
2022/02/15 15:07:55;;;;;;;;;;;;;;;;;;5083377;28;19953;-68
2022/02/15 15:10:21;;;;;;;;;;;;;;;;;;5083352;28;19930;-68
2022/02/15 15:12:47;;;;;;;;;;;;;;;;;;5082551;28;19947;-68
2022/02/15 15:15:13;;;;;;;;;;;;;;;;;;5087724;28;19904;-68
2022/02/15 15:17:40;;;;;;;;;;;;;;;;;;5087471;28;19904;-68
2022/02/15 15:20:06;;;;;;;;;;;;;;;;;;5082992;28;19908;-67
2022/02/15 15:22:32;;;;;;;;;;;;;;;;;;5083022;28;19942;-68
2022/02/15 15:24:58;;;;;;;;;;;;;;;;;;5082798;28;19915;-68
2022/02/15 15:27:24;;;;;;;;;;;;;;;;;;5083989;28;19912;-68
2022/02/15 15:29:50;;;;;;;;;;;;;;;;;;5090092;28;19912;-67
2022/02/15 15:32:16;;;;;;;;;;;;;;;;;;5082430;28;19961;-66
2022/02/15 15:34:42;;;;;;;;;;;;;;;;;;5082555;28;19908;-66
2022/02/15 15:37:08;;;;;;;;;;;;;;;;;;5081948;28;20330;-66
2022/02/15 15:39:34;;;;;;;;;;;;;;;;;;5083074;28;19962;-71
2022/02/15 15:42:03;;;;;;;;;;;;;;;;;;5086613;28;19950;-70
2022/02/15 15:44:28;;;;;;;;;;;;;;;;;;5065022;28;19915;-68
2022/02/15 15:46:55;;;;;;;;;;;;;;;;;;5058843;28;20284;-67
2022/02/15 15:49:21;;;;;;;;;;;;;;;;;;5055360;28;19925;-72
2022/02/15 15:51:47;;;;;;;;;;;;;;;;;;5053499;28;20484;-67
2022/02/15 15:54:13;;;;;;;;;;;;;;;;;;5052215;28;20386;-68
2022/02/15 15:56:39;;;;;;;;;;;;;;;;;;5054465;28;20009;-66
2022/02/15 15:59:05;;;;;;;;;;;;;;;;;;5055024;28;19956;-66
2022/02/15 16:01:31;;;;;;;;;;;;;;;;;;5054947;28;20482;-66
2022/02/15 16:03:57;;;;;;;;;;;;;;;;;;5054281;28;20655;-73
2022/02/15 16:06:24;;;;;;;;;;;;;;;;;;5080557;28;19919;-68
2022/02/15 16:08:50;;;;;;;;;;;;;;;;;;5053703;28;19920;-65
2022/02/15 16:11:16;;;;;;;;;;;;;;;;;;5054970;28;19904;-66
2022/02/15 16:13:42;;;;;;;;;;;;;;;;;;5054452;28;20375;-66
2022/02/15 16:16:08;;;;;;;;;;;;;;;;;;5053979;28;19954;-65
2022/02/15 16:18:35;;;;;;;;;;;;;;;;;;5050780;28;20445;-64
2022/02/15 16:21:01;;;;;;;;;;;;;;;;;;5055779;28;19911;-69
2022/02/15 16:23:27;;;;;;;;;;;;;;;;;;5079266;28;19999;-68
2022/02/15 16:25:52;;;;;;;;;;;;;;;;;;5066766;28;19905;-70
2022/02/15 16:28:18;;;;;;;;;;;;;;;;;;5057699;28;19959;-63
2022/02/15 16:30:44;;;;;;;;;;;;;;;;;;5055728;28;19913;-68
2022/02/15 16:33:10;;;;;;;;;;;;;;;;;;5055446;28;19931;-65
2022/02/15 16:35:36;;;;;;;;;;;;;;;;;;5057162;28;19916;-67
2022/02/15 16:38:02;;;;;;;;;;;;;;;;;;5057286;28;19996;-65
2022/02/15 16:40:28;;;;;;;;;;;;;;;;;;5058277;28;19912;-66
2022/02/15 16:42:54;;;;;;;;;;;;;;;;;;5054886;28;19905;-69